Time;durP1;ratioP1;P1;durP2;ratioP2;P2;SDS_P1;SDS_P2;PMS_P1;PMS_P2;Temp;Humidity;BMP_temperature;BMP_pressure;BME280_temperature;BME280_humidity;BME280_pressure;Samples;Min_cycle;Max_cycle;Signal;HPM_P1;HPM_P2
2021/11/29 00:01:39;;;;;;;;;5.50;3.00;;;;;2.52;70.63;99553.53;5096867;27;45218;-79
2021/11/29 00:04:05;;;;;;;;;7.50;3.00;;;;;2.50;70.91;99556.22;5097134;27;45246;-78
2021/11/29 00:06:30;;;;;;;;;5.25;3.75;;;;;2.48;70.82;99549.31;5097070;27;45478;-78
2021/11/29 00:08:55;;;;;;;;;6.50;2.75;;;;;2.47;70.66;99558.13;5096884;27;45361;-78
2021/11/29 00:11:21;;;;;;;;;6.75;4.25;;;;;2.47;71.03;99558.97;5097052;27;45066;-78
2021/11/29 00:13:46;;;;;;;;;5.75;2.00;;;;;2.42;71.01;99558.28;5096856;27;45308;-78
2021/11/29 00:16:12;;;;;;;;;5.00;3.00;;;;;2.46;71.00;99559.88;5096643;27;46027;-78
2021/11/29 00:18:37;;;;;;;;;4.75;3.50;;;;;2.42;70.93;99558.28;5096787;27;45207;-78
2021/11/29 00:21:04;;;;;;;;;5.25;5.00;;;;;2.40;71.13;99560.13;5096831;27;45374;-78
2021/11/29 00:23:30;;;;;;;;;6.00;4.50;;;;;2.40;70.99;99560.97;5096667;27;45263;-78
2021/11/29 00:25:56;;;;;;;;;5.75;3.75;;;;;2.34;71.19;99553.34;5096937;27;46014;-78
2021/11/29 00:28:21;;;;;;;;;7.25;3.00;;;;;2.33;71.07;99558.66;5096586;27;45174;-78
2021/11/29 00:30:47;;;;;;;;;3.50;3.50;;;;;2.37;71.29;99573.34;5096633;27;45267;-78
2021/11/29 00:33:13;;;;;;;;;6.00;3.75;;;;;2.35;70.84;99570.78;5096675;27;45226;-78
2021/11/29 00:35:38;;;;;;;;;3.00;3.00;;;;;2.34;71.00;99576.09;5096460;27;45353;-78
2021/11/29 00:38:06;;;;;;;;;3.00;3.00;;;;;2.35;70.93;99583.03;5096471;27;45176;-78
2021/11/29 00:40:32;;;;;;;;;7.00;5.00;;;;;2.29;71.02;99570.16;5096659;27;45229;-78
2021/11/29 00:42:57;;;;;;;;;9.75;3.25;;;;;2.30;71.10;99574.50;5096869;27;45188;-78
2021/11/29 00:45:22;;;;;;;;;7.50;3.00;;;;;2.29;71.41;99578.03;5096528;27;46223;-78
2021/11/29 00:47:48;;;;;;;;;3.25;3.25;;;;;2.22;71.16;99573.00;5096461;27;45232;-78
2021/11/29 00:50:15;;;;;;;;;5.25;2.50;;;;;2.28;71.25;99592.03;5096407;27;45190;-78
2021/11/29 00:52:41;;;;;;;;;6.25;2.50;;;;;2.28;71.03;99600.78;5096195;27;45255;-78
2021/11/29 00:55:08;;;;;;;;;6.00;2.00;;;;;2.26;71.23;99599.13;5096477;27;45258;-78
2021/11/29 00:57:34;;;;;;;;;5.25;4.00;;;;;2.25;71.18;99606.13;5096352;27;45155;-78
2021/11/29 00:59:59;;;;;;;;;7.50;6.00;;;;;2.23;71.25;99600.09;5096699;27;45135;-78
2021/11/29 01:02:24;;;;;;;;;3.00;3.00;;;;;2.23;71.27;99607.97;5099928;27;45216;-78
2021/11/29 01:04:50;;;;;;;;;9.00;6.75;;;;;2.23;71.48;99611.44;5099829;27;45544;-78
2021/11/29 01:07:15;;;;;;;;;7.25;5.00;;;;;2.23;71.30;99606.19;5099831;27;45285;-78
2021/11/29 01:09:40;;;;;;;;;2.50;2.50;;;;;2.22;71.41;99611.47;5099822;27;45110;-78
2021/11/29 01:12:07;;;;;;;;;5.50;4.00;;;;;2.18;71.04;99608.13;5099782;27;45320;-78
2021/11/29 01:14:32;;;;;;;;;6.25;3.50;;;;;2.20;71.26;99614.16;5099534;27;46198;-78
2021/11/29 01:16:57;;;;;;;;;11.75;3.00;;;;;2.19;71.37;99615.06;5099742;27;45261;-78
2021/11/29 01:19:23;;;;;;;;;3.00;2.50;;;;;2.19;71.40;99614.22;5098405;27;45193;-78
2021/11/29 01:21:48;;;;;;;;;13.50;5.75;;;;;2.14;71.29;99609.16;5099573;27;45200;-78
2021/11/29 01:24:14;;;;;;;;;3.00;3.00;;;;;2.17;71.36;99613.44;5099604;27;45969;-78
2021/11/29 01:26:39;;;;;;;;;5.00;2.75;;;;;2.13;71.49;99620.53;5099664;27;45161;-78
2021/11/29 01:29:06;;;;;;;;;6.75;5.00;;;;;2.14;71.59;99624.00;5099500;27;45072;-78
2021/11/29 01:31:31;;;;;;;;;7.00;3.50;;;;;2.07;71.55;99615.53;5115322;27;45392;-78
2021/11/29 01:33:56;;;;;;;;;8.25;3.00;;;;;2.11;71.39;99627.63;5099286;27;46044;-78
2021/11/29 01:36:22;;;;;;;;;6.33;5.00;;;;;2.11;71.57;99632.00;5099380;27;45275;-78
2021/11/29 01:38:47;;;;;;;;;4.00;4.00;;;;;2.11;71.78;99639.84;5099295;27;45414;-78
2021/11/29 01:41:16;;;;;;;;;10.00;5.00;;;;;2.11;71.62;99639.84;5099297;27;45272;-78
2021/11/29 01:43:41;;;;;;;;;7.00;4.00;;;;;2.06;71.61;99643.50;5099215;27;45969;-78
2021/11/29 01:46:07;;;;;;;;;5.25;4.00;;;;;2.10;71.76;99651.28;5099399;27;45223;-78
2021/11/29 01:48:32;;;;;;;;;4.00;2.75;;;;;2.07;71.50;99652.25;5099261;27;45203;-78
2021/11/29 01:50:59;;;;;;;;;4.50;4.50;;;;;2.07;71.82;99647.00;5099280;27;45178;-78
2021/11/29 01:53:28;;;;;;;;;3.50;3.00;;;;;2.09;71.63;99658.28;5098933;27;46332;-78
2021/11/29 01:55:58;;;;;;;;;5.50;3.25;;;;;2.09;71.78;99658.28;5098980;27;45312;-78
2021/11/29 01:58:23;;;;;;;;;4.00;4.00;;;;;2.02;71.68;99648.91;5098863;27;45216;-78
2021/11/29 02:00:52;;;;;;;;;3.50;3.50;;;;;2.05;72.05;99665.41;5099031;27;45204;-78
2021/11/29 02:03:18;;;;;;;;;6.25;3.00;;;;;2.03;71.67;99666.34;5098891;27;46742;-78
2021/11/29 02:05:44;;;;;;;;;7.00;5.00;;;;;2.03;71.90;99668.97;5098489;27;45256;-78
2021/11/29 02:08:10;;;;;;;;;7.00;4.00;;;;;2.02;71.80;99668.13;5098883;27;45192;-78
2021/11/29 02:10:36;;;;;;;;;5.00;3.00;;;;;2.02;71.95;99669.88;5098909;27;45254;-78
2021/11/29 02:13:01;;;;;;;;;5.75;5.75;;;;;2.02;71.94;99669.88;5098480;27;45148;-78
2021/11/29 02:15:26;;;;;;;;;4.50;3.50;;;;;2.02;72.13;99669.88;5097236;27;45213;-78
2021/11/29 02:17:52;;;;;;;;;4.50;3.00;;;;;2.01;71.88;99673.41;5098762;27;45349;-78
2021/11/29 02:20:19;;;;;;;;;4.00;2.25;;;;;2.00;72.07;99675.19;5099099;27;45172;-78
2021/11/29 02:22:44;;;;;;;;;5.00;3.00;;;;;1.94;72.05;99664.91;5098576;27;46011;-77
2021/11/29 02:25:12;;;;;;;;;5.75;2.75;;;;;1.99;71.96;99676.06;5098981;27;45158;-78
2021/11/29 02:27:40;;;;;;;;;6.25;3.50;;;;;1.99;72.09;99680.47;5098682;27;45218;-78
2021/11/29 02:30:06;;;;;;;;;5.25;3.00;;;;;1.99;72.04;99676.06;5098761;27;45154;-78
2021/11/29 02:32:31;;;;;;;;;3.00;3.00;;;;;1.97;72.31;99682.31;5098526;27;45566;-78
2021/11/29 02:34:56;;;;;;;;;2.75;2.75;;;;;1.99;72.39;99683.09;5098505;27;45161;-78
2021/11/29 02:37:22;;;;;;;;;6.00;4.00;;;;;1.99;72.38;99688.34;5098734;27;45298;-78
2021/11/29 02:39:47;;;;;;;;;6.25;2.00;;;;;1.97;72.25;99682.31;5114466;27;45059;-78
2021/11/29 02:42:13;;;;;;;;;5.75;5.00;;;;;1.98;72.16;99694.50;5098160;27;46108;-78
2021/11/29 02:44:40;;;;;;;;;2.00;2.00;;;;;2.01;72.38;99695.25;5098161;27;45523;-78
2021/11/29 02:47:06;;;;;;;;;5.00;2.25;;;;;2.00;72.55;99688.28;5098417;27;45239;-78
2021/11/29 02:49:32;;;;;;;;;6.25;2.00;;;;;2.00;72.44;99683.03;5098321;27;45238;-78
2021/11/29 02:52:02;;;;;;;;;5.00;2.25;;;;;2.00;72.34;99682.19;5098049;27;45380;-78
2021/11/29 02:54:30;;;;;;;;;3.50;3.00;;;;;2.00;72.56;99682.19;5113901;27;45747;-78
2021/11/29 02:57:02;;;;;;;;;6.00;3.00;;;;;1.97;72.58;99683.16;5098193;27;45230;-78
2021/11/29 02:59:30;;;;;;;;;4.50;1.25;;;;;1.99;72.73;99675.22;5098257;27;45207;-78
2021/11/29 03:01:58;;;;;;;;;3.00;3.00;;;;;1.99;72.53;99681.31;5097777;27;46624;-78
2021/11/29 03:04:27;;;;;;;;;2.50;1.00;;;;;1.99;72.68;99683.94;5097987;27;45264;-78
2021/11/29 03:06:52;;;;;;;;;4.50;2.00;;;;;1.98;72.67;99682.25;5097961;27;45201;-78
2021/11/29 03:09:18;;;;;;;;;4.50;2.00;;;;;1.97;72.60;99693.63;5098093;27;45158;-79
2021/11/29 03:11:45;;;;;;;;;5.00;2.00;;;;;1.97;72.70;99695.41;5097444;27;45212;-78
2021/11/29 03:14:10;;;;;;;;;3.00;1.50;;;;;1.99;72.81;99702.28;5098073;27;45208;-77
2021/11/29 03:16:36;;;;;;;;;3.00;1.50;;;;;2.01;72.76;99710.09;5097938;27;45199;-78
2021/11/29 03:19:02;;;;;;;;;3.00;2.00;;;;;2.04;72.47;99717.91;5097629;27;45244;-78
2021/11/29 03:21:28;;;;;;;;;3.00;3.00;;;;;2.03;72.62;99719.66;5097623;27;45318;-78
2021/11/29 03:23:59;;;;;;;;;5.00;2.25;;;;;2.02;72.59;99717.97;5096908;27;45828;-78
2021/11/29 03:26:26;;;;;;;;;3.00;3.00;;;;;2.09;72.48;99728.22;5097695;27;45215;-78
2021/11/29 03:28:58;;;;;;;;;5.00;1.75;;;;;2.07;72.57;99730.91;5097484;27;45263;-78
2021/11/29 03:31:25;;;;;;;;;6.50;2.00;;;;;2.12;72.24;99742.06;5097262;27;45629;-78
2021/11/29 03:33:55;;;;;;;;;6.75;3.00;;;;;2.09;71.90;99747.44;5097263;27;45293;-78
2021/11/29 03:36:21;;;;;;;;;2.00;2.00;;;;;2.08;72.22;99745.69;5097579;27;45153;-78
2021/11/29 03:38:46;;;;;;;;;5.00;3.00;;;;;2.10;72.40;99750.94;5097403;27;45305;-78
2021/11/29 03:41:12;;;;;;;;;8.25;3.00;;;;;2.08;71.99;99745.69;5096880;27;45380;-79
2021/11/29 03:43:38;;;;;;;;;3.50;3.50;;;;;2.06;72.15;99750.16;5097141;27;45340;-79
2021/11/29 03:46:05;;;;;;;;;2.75;2.75;;;;;2.06;71.95;99752.78;5097350;27;45092;-78
2021/11/29 03:48:30;;;;;;;;;6.00;3.50;;;;;2.03;72.39;99748.50;5097463;27;45223;-78
2021/11/29 03:50:55;;;;;;;;;3.00;2.50;;;;;1.99;72.39;99746.88;5097173;27;46181;-78
2021/11/29 03:53:21;;;;;;;;;2.00;2.00;;;;;1.99;72.14;99752.13;5112769;27;45204;-79
2021/11/29 03:55:46;;;;;;;;;1.00;1.00;;;;;1.96;72.44;99760.09;5097295;27;45347;-79
2021/11/29 03:58:12;;;;;;;;;2.50;2.00;;;;;1.94;72.51;99764.53;5097137;27;45369;-78
2021/11/29 04:00:38;;;;;;;;;4.50;2.25;;;;;1.93;72.36;99764.59;5112807;27;45808;-79
2021/11/29 04:03:04;;;;;;;;;1.75;1.75;;;;;1.90;72.54;99771.63;5097051;27;45237;-78
2021/11/29 04:05:30;;;;;;;;;3.50;1.50;;;;;1.86;72.55;99766.53;5097074;27;45358;-79
2021/11/29 04:07:55;;;;;;;;;5.25;1.75;;;;;1.85;72.44;99768.31;5097327;27;45146;-78
2021/11/29 04:10:21;;;;;;;;;3.50;1.75;;;;;1.84;72.66;99784.94;5096843;27;45214;-78
2021/11/29 04:12:46;;;;;;;;;6.00;2.50;;;;;1.84;72.73;99786.69;5096593;27;45287;-78
2021/11/29 04:15:12;;;;;;;;;2.00;1.00;;;;;1.83;73.08;99788.47;5097234;27;45188;-78
2021/11/29 04:17:40;;;;;;;;;2.00;1.50;;;;;1.80;73.08;99790.34;5096980;27;45201;-78
2021/11/29 04:20:08;;;;;;;;;2.00;2.00;;;;;1.86;73.07;99798.84;5096310;27;46482;-78
2021/11/29 04:22:35;;;;;;;;;2.25;1.00;;;;;1.89;73.21;99793.50;5096377;27;45234;-78
2021/11/29 04:25:02;;;;;;;;;2.75;2.75;;;;;1.89;73.26;99787.41;5097098;27;45486;-78
2021/11/29 04:27:29;;;;;;;;;2.00;2.00;;;;;1.92;73.33;99794.31;5096696;27;45146;-78
2021/11/29 04:29:54;;;;;;;;;3.00;2.00;;;;;1.92;73.18;99795.16;5096706;27;46356;-78
2021/11/29 04:32:20;;;;;;;;;5.75;3.00;;;;;1.93;73.05;99796.91;5096328;27;45211;-78
2021/11/29 04:34:45;;;;;;;;;5.00;2.00;;;;;1.93;73.06;99794.28;5096889;27;45253;-78
2021/11/29 04:37:10;;;;;;;;;2.25;2.25;;;;;1.95;72.81;99800.31;5100342;27;45359;-78
2021/11/29 04:39:36;;;;;;;;;4.75;1.75;;;;;1.96;72.90;99809.06;5100161;27;45877;-78
2021/11/29 04:42:02;;;;;;;;;3.00;3.00;;;;;1.87;72.80;99795.31;5099721;27;45295;-78
2021/11/29 04:44:28;;;;;;;;;5.75;2.25;;;;;1.96;72.97;99806.44;5100380;27;45169;-78
2021/11/29 04:46:54;;;;;;;;;6.25;3.00;;;;;1.94;72.84;99818.72;5100126;27;45326;-78
2021/11/29 04:49:20;;;;;;;;;3.00;1.75;;;;;1.94;72.73;99822.22;5100277;27;45642;-78
2021/11/29 04:51:45;;;;;;;;;2.00;2.00;;;;;1.90;72.97;99821.44;5099896;27;45239;-78
2021/11/29 04:54:11;;;;;;;;;5.00;2.75;;;;;1.90;72.84;99824.06;5099640;27;45423;-78
2021/11/29 04:56:39;;;;;;;;;6.00;2.00;;;;;1.80;73.03;99820.03;5100097;27;45139;-78
2021/11/29 04:59:05;;;;;;;;;4.50;4.50;;;;;1.85;72.74;99836.47;5099759;27;46718;-78
2021/11/29 05:01:30;;;;;;;;;7.00;3.00;;;;;1.81;73.05;99829.59;5099830;27;45271;-78
2021/11/29 05:03:56;;;;;;;;;2.75;2.75;;;;;1.78;72.89;99824.47;5099779;27;45299;-78
2021/11/29 05:06:21;;;;;;;;;5.75;2.50;;;;;1.80;73.07;99842.75;5100239;27;45267;-78
2021/11/29 05:08:47;;;;;;;;;4.00;4.00;;;;;1.80;73.16;99851.47;5115455;27;46085;-80
2021/11/29 05:11:13;;;;;;;;;4.75;3.00;;;;;1.79;73.13;99844.50;5099778;27;45717;-79
2021/11/29 05:13:38;;;;;;;;;4.00;2.50;;;;;1.79;72.96;99852.38;5099613;27;45187;-79
2021/11/29 05:16:04;;;;;;;;;5.00;3.00;;;;;1.75;72.98;99844.66;5099464;27;45174;-79
2021/11/29 05:18:30;;;;;;;;;2.75;2.75;;;;;1.77;73.12;99853.31;5099489;27;46549;-79
2021/11/29 05:20:56;;;;;;;;;6.50;3.00;;;;;1.76;72.98;99855.09;5099425;27;45261;-79
2021/11/29 05:23:21;;;;;;;;;5.75;4.50;;;;;1.75;73.15;99858.59;5099387;27;45326;-79
2021/11/29 05:25:47;;;;;;;;;10.50;5.75;;;;;1.75;73.26;99866.47;5099538;27;45165;-79
2021/11/29 05:28:12;;;;;;;;;5.25;3.00;;;;;1.75;73.10;99874.34;5099444;27;46184;-80
2021/11/29 05:30:38;;;;;;;;;4.50;2.00;;;;;1.71;73.17;99873.59;5099141;27;45302;-79
2021/11/29 05:33:03;;;;;;;;;3.00;3.00;;;;;1.71;73.23;99875.31;5099018;27;45262;-79
2021/11/29 05:35:29;;;;;;;;;2.25;2.25;;;;;1.59;73.28;99868.69;5099440;27;45181;-79
2021/11/29 05:37:54;;;;;;;;;1.75;1.75;;;;;1.67;73.23;99889.44;5097582;27;47999;-80
2021/11/29 05:40:19;;;;;;;;;3.00;3.00;;;;;1.64;73.31;99885.16;5099314;27;45193;-77
2021/11/29 05:42:46;;;;;;;;;3.50;3.00;;;;;1.64;73.16;99894.75;5099202;27;45227;-77
2021/11/29 05:45:13;;;;;;;;;6.00;2.75;;;;;1.64;73.13;99903.50;5099645;27;45266;-77
2021/11/29 05:47:39;;;;;;;;;3.25;2.25;;;;;1.63;73.37;99912.25;5114601;27;47639;-77
2021/11/29 05:50:06;;;;;;;;;2.50;2.00;;;;;1.61;73.44;99916.69;5099015;27;45272;-77
2021/11/29 05:52:32;;;;;;;;;5.75;2.00;;;;;1.64;73.49;99921.84;5099211;27;45161;-78
2021/11/29 05:54:58;;;;;;;;;2.25;2.25;;;;;1.61;73.49;99918.44;5099378;27;45134;-77
2021/11/29 05:57:23;;;;;;;;;6.00;2.00;;;;;1.61;73.39;99928.91;5098978;27;46546;-77
2021/11/29 05:59:48;;;;;;;;;1.50;1.00;;;;;1.56;73.52;99926.44;5100358;27;45266;-80
2021/11/29 06:02:14;;;;;;;;;1.00;1.00;;;;;1.48;73.51;99916.19;5100383;27;45166;-79
2021/11/29 06:04:39;;;;;;;;;2.25;1.75;;;;;1.50;73.78;99922.22;5098759;27;45142;-80
2021/11/29 06:07:04;;;;;;;;;1.25;1.25;;;;;1.55;73.45;99929.94;5098259;27;45429;-79
2021/11/29 06:09:30;;;;;;;;;6.00;1.25;;;;;1.55;73.82;99928.22;5098448;27;45210;-82
2021/11/29 06:11:55;;;;;;;;;2.00;2.00;;;;;1.55;73.66;99933.44;5098197;27;45204;-80
2021/11/29 06:14:20;;;;;;;;;2.00;2.00;;;;;1.55;74.04;99935.19;5098207;27;45298;-79
2021/11/29 06:16:46;;;;;;;;;3.00;3.00;;;;;1.50;74.25;99934.47;5098051;27;45922;-80
2021/11/29 06:19:11;;;;;;;;;2.25;1.00;;;;;1.54;74.31;99944.81;5098575;27;45301;-80
2021/11/29 06:21:37;;;;;;;;;5.00;2.00;;;;;1.61;74.48;99947.25;5097322;27;45195;-78
2021/11/29 06:24:02;;;;;;;;;1.50;1.50;;;;;1.70;74.27;99963.59;5098405;27;45220;-78
2021/11/29 06:26:28;;;;;;;;;3.00;2.00;;;;;1.76;74.54;99961.69;5098651;27;47411;-78
2021/11/29 06:28:53;;;;;;;;;1.75;1.75;;;;;1.82;74.31;99969.38;5098249;27;45188;-78
2021/11/29 06:31:18;;;;;;;;;2.00;2.00;;;;;1.82;74.06;99967.59;5098546;27;45131;-78
2021/11/29 06:33:44;;;;;;;;;1.00;1.00;;;;;1.88;73.84;99977.06;5098461;27;45260;-78
2021/11/29 06:36:09;;;;;;;;;7.00;3.00;;;;;1.89;73.84;99982.25;5098269;27;45556;-78
2021/11/29 06:38:35;;;;;;;;;2.00;1.00;;;;;1.94;73.66;99997.00;5113958;27;45250;-78
2021/11/29 06:41:00;;;;;;;;;3.00;2.00;;;;;1.96;73.71;99996.06;5098383;27;45231;-78
2021/11/29 06:43:26;;;;;;;;;2.00;1.00;;;;;1.99;73.77;100000.34;5113937;27;45340;-78
2021/11/29 06:45:53;;;;;;;;;3.50;2.00;;;;;2.02;73.57;100003.78;5098251;27;46001;-78
2021/11/29 06:48:19;;;;;;;;;10.00;6.00;;;;;2.04;73.50;100007.19;5098202;27;45277;-78
2021/11/29 06:50:45;;;;;;;;;6.50;5.00;;;;;1.99;73.62;99995.13;5098229;27;45138;-78
2021/11/29 06:53:11;;;;;;;;;4.25;1.00;;;;;2.04;73.28;100012.44;5097884;27;45361;-78
2021/11/29 06:55:36;;;;;;;;;5.00;5.00;;;;;2.07;73.42;100014.13;5098153;27;46071;-78
2021/11/29 06:58:02;;;;;;;;;5.50;3.00;;;;;2.10;73.05;100018.41;5097005;27;45246;-78
2021/11/29 07:00:29;;;;;;;;;4.25;2.50;;;;;2.12;73.04;100038.44;5098220;27;45215;-78
2021/11/29 07:02:54;;;;;;;;;1.75;1.00;;;;;2.10;73.08;100045.50;5098145;27;45351;-78
2021/11/29 07:05:20;;;;;;;;;2.00;2.00;;;;;2.09;72.98;100043.75;5097898;27;45310;-78
2021/11/29 07:07:49;;;;;;;;;4.00;1.00;;;;;2.13;73.22;100053.28;5098077;27;45254;-78
2021/11/29 07:10:15;;;;;;;;;1.00;1.00;;;;;2.14;72.97;100064.59;5098221;27;45204;-78
2021/11/29 07:12:41;;;;;;;;;1.75;1.75;;;;;2.16;72.68;100068.06;5098016;27;45191;-78
2021/11/29 07:15:08;;;;;;;;;2.25;1.00;;;;;2.12;73.05;100055.94;5098147;27;45229;-78
2021/11/29 07:17:33;;;;;;;;;5.00;1.25;;;;;2.15;72.74;100067.22;5097578;27;45727;-78
2021/11/29 07:19:59;;;;;;;;;6.50;2.00;;;;;2.08;72.64;100068.25;5097855;27;45295;-78
2021/11/29 07:22:25;;;;;;;;;2.75;0.50;;;;;2.04;72.95;100075.38;5097888;27;45214;-78
2021/11/29 07:24:52;;;;;;;;;2.00;2.00;;;;;1.99;72.98;100079.88;5097330;27;46567;-78
2021/11/29 07:27:20;;;;;;;;;5.00;2.00;;;;;1.94;72.68;100078.28;5097605;27;45283;-77
2021/11/29 07:29:45;;;;;;;;;3.00;2.00;;;;;1.87;73.31;100073.22;5097904;27;45055;-78
2021/11/29 07:32:11;;;;;;;;;6.25;2.00;;;;;1.79;73.33;100069.94;5097264;27;45130;-78
2021/11/29 07:34:36;;;;;;;;;6.00;6.00;;;;;1.82;73.23;100082.94;5113204;27;47544;-78
2021/11/29 07:37:02;;;;;;;;;2.00;2.00;;;;;1.78;73.52;100075.22;5097139;27;45538;-78
2021/11/29 07:39:29;;;;;;;;;1.50;1.50;;;;;1.79;73.93;100093.53;5097686;27;45174;-78
2021/11/29 07:41:57;;;;;;;;;1.75;1.50;;;;;1.77;73.92;100103.19;5097706;27;45183;-78
2021/11/29 07:44:22;;;;;;;;;2.00;1.00;;;;;1.78;74.07;100102.31;5113228;27;46222;-78
2021/11/29 07:46:48;;;;;;;;;1.25;1.25;;;;;1.78;73.90;100102.31;5097196;27;45132;-78
2021/11/29 07:49:13;;;;;;;;;1.50;1.50;;;;;1.75;73.93;100094.50;5097537;27;45206;-78
2021/11/29 07:51:38;;;;;;;;;3.50;3.00;;;;;1.71;73.96;100098.09;5097868;27;45100;-78
2021/11/29 07:54:04;;;;;;;;;2.50;1.50;;;;;1.79;74.06;100117.13;5096641;27;45321;-78
2021/11/29 07:56:29;;;;;;;;;5.00;2.00;;;;;1.80;73.72;100118.84;5097433;27;45279;-78
2021/11/29 07:58:55;;;;;;;;;2.00;1.50;;;;;1.76;73.90;100111.97;5097290;27;45290;-78
2021/11/29 08:01:20;;;;;;;;;1.75;1.75;;;;;1.79;73.94;100126.75;5097340;27;45216;-78
2021/11/29 08:03:46;;;;;;;;;6.50;2.50;;;;;1.76;73.93;100111.09;5096590;27;45284;-78
2021/11/29 08:06:11;;;;;;;;;5.50;3.50;;;;;1.80;74.03;100128.47;5097145;27;45207;-80
2021/11/29 08:08:37;;;;;;;;;2.00;2.00;;;;;1.77;73.84;100132.03;5097241;27;45190;-78
2021/11/29 08:11:02;;;;;;;;;2.00;2.00;;;;;1.76;74.22;100143.41;5100829;27;45231;-78
2021/11/29 08:13:27;;;;;;;;;5.50;2.50;;;;;1.70;74.12;100135.72;5100699;27;46008;-78
2021/11/29 08:15:53;;;;;;;;;13.75;9.50;;;;;1.75;74.30;100141.69;5100707;27;45234;-78
2021/11/29 08:18:18;;;;;;;;;16.50;13.50;;;;;1.80;74.36;100159.94;5100765;27;45225;-78
2021/11/29 08:20:44;;;;;;;;;12.50;6.50;;;;;1.79;74.47;100147.72;5099237;27;45363;-78
2021/11/29 08:23:10;;;;;;;;;11.25;10.75;;;;;1.83;74.51;100163.31;5100373;27;45241;-78
2021/11/29 08:25:41;;;;;;;;;8.50;7.75;;;;;1.85;74.73;100158.91;5100469;27;45129;-78
2021/11/29 08:28:08;;;;;;;;;12.50;10.25;;;;;1.90;74.60;100172.75;5100386;27;45270;-78
2021/11/29 08:30:33;;;;;;;;;11.50;11.25;;;;;1.95;74.63;100174.41;5100773;27;45214;-77
2021/11/29 08:32:59;;;;;;;;;14.00;9.50;;;;;2.00;74.79;100178.63;5100179;27;45469;-78
2021/11/29 08:35:24;;;;;;;;;5.50;5.50;;;;;2.04;74.40;100174.19;5100115;27;45278;-78
2021/11/29 08:37:52;;;;;;;;;8.50;7.00;;;;;2.09;74.62;100176.66;5100207;27;45168;-78
2021/11/29 08:40:21;;;;;;;;;3.00;3.00;;;;;2.05;74.50;100170.63;5100231;27;45125;-78
2021/11/29 08:42:47;;;;;;;;;14.00;6.50;;;;;2.14;74.44;100186.13;5100109;27;46960;-78
2021/11/29 08:45:12;;;;;;;;;13.00;7.50;;;;;2.18;74.56;100184.28;5100471;27;45646;-78
2021/11/29 08:47:38;;;;;;;;;8.25;7.00;;;;;2.21;74.67;100186.84;5100137;27;45232;-78
2021/11/29 08:50:05;;;;;;;;;11.00;7.00;;;;;2.29;74.22;100192.72;5100442;27;45291;-78
2021/11/29 08:52:34;;;;;;;;;3.00;3.00;;;;;2.35;74.60;100195.19;5098298;27;47280;-78
2021/11/29 08:55:02;;;;;;;;;6.75;6.75;;;;;2.38;74.56;100195.09;5100046;27;45218;-78
2021/11/29 08:57:28;;;;;;;;;7.75;5.00;;;;;2.41;74.34;100189.78;5100242;27;45399;-78
2021/11/29 08:59:53;;;;;;;;;8.33;6.33;;;;;2.42;74.26;100196.75;5100254;27;45156;-78
2021/11/29 09:02:18;;;;;;;;;6.67;4.33;;;;;2.49;74.38;100196.56;5099837;27;45244;-78
2021/11/29 09:04:44;;;;;;;;;6.00;2.00;;;;;2.51;74.24;100193.00;5099675;27;45178;-78
2021/11/29 09:07:09;;;;;;;;;7.00;2.50;;;;;2.57;74.35;100203.31;5099922;27;45185;-78
2021/11/29 09:09:34;;;;;;;;;2.50;1.00;;;;;2.59;74.14;100201.53;5100094;27;45253;-78
2021/11/29 09:12:01;;;;;;;;;3.00;2.00;;;;;2.62;74.34;100205.81;5099746;27;45180;-78
2021/11/29 09:14:26;;;;;;;;;3.00;3.00;;;;;2.58;74.14;100196.34;5099895;27;45202;-78
2021/11/29 09:16:52;;;;;;;;;2.00;2.00;;;;;2.62;73.89;100204.97;5099981;27;45116;-78
2021/11/29 09:19:17;;;;;;;;;3.00;2.50;;;;;2.68;73.98;100215.28;5099702;27;45184;-78
2021/11/29 09:21:43;;;;;;;;;3.25;2.75;;;;;2.69;73.95;100217.00;5098934;27;45339;-78
2021/11/29 09:24:08;;;;;;;;;6.25;4.00;;;;;2.69;74.08;100215.22;5099420;27;45207;-78
2021/11/29 09:26:34;;;;;;;;;6.00;5.00;;;;;2.77;74.24;100222.91;5098246;27;45265;-78
2021/11/29 09:28:59;;;;;;;;;3.50;2.00;;;;;2.81;74.01;100224.53;5099424;27;45230;-78
2021/11/29 09:31:26;;;;;;;;;4.75;4.75;;;;;2.87;74.34;100224.38;5099736;27;45374;-78
2021/11/29 09:33:51;;;;;;;;;5.25;5.25;;;;;2.95;74.14;100229.41;5099345;27;45702;-78
2021/11/29 09:36:17;;;;;;;;;5.25;3.25;;;;;3.00;73.95;100230.13;5099572;27;45231;-78
2021/11/29 09:38:42;;;;;;;;;3.75;2.00;;;;;3.06;73.67;100232.56;5099502;27;45519;-78
2021/11/29 09:41:08;;;;;;;;;6.00;3.00;;;;;3.12;73.96;100249.91;5099344;27;45327;-78
2021/11/29 09:43:34;;;;;;;;;5.75;3.00;;;;;3.16;73.53;100243.66;5099071;27;45180;-78
2021/11/29 09:46:00;;;;;;;;;8.50;6.25;;;;;3.23;73.71;100250.44;5099181;27;45248;-78
2021/11/29 09:48:25;;;;;;;;;6.50;5.00;;;;;3.32;73.68;100254.59;5099441;27;45335;-78
2021/11/29 09:50:54;;;;;;;;;8.50;2.00;;;;;3.40;73.38;100249.94;5099112;27;45142;-78
2021/11/29 09:53:22;;;;;;;;;8.50;3.00;;;;;3.48;73.77;100257.59;5098482;27;45268;-78
2021/11/29 09:55:49;;;;;;;;;6.00;5.00;;;;;3.60;73.29;100267.72;5099172;27;45282;-78
2021/11/29 09:58:14;;;;;;;;;7.50;3.25;;;;;3.72;73.37;100266.50;5099354;27;45242;-78
2021/11/29 10:00:44;;;;;;;;;8.25;4.00;;;;;3.83;73.01;100279.28;5098716;27;46011;-78
2021/11/29 10:03:10;;;;;;;;;4.25;3.00;;;;;3.91;72.77;100272.03;5098588;27;45717;-78
2021/11/29 10:05:36;;;;;;;;;2.25;2.25;;;;;4.06;72.96;100277.69;5098976;27;45219;-78
2021/11/29 10:08:21;;;;;;;;;3.00;3.00;;;;;4.17;72.45;100274.72;5098851;27;45218;-78
2021/11/29 10:11:11;;;;;;;;;7.75;4.00;;;;;4.27;72.35;100290.13;5098896;27;45934;-78
2021/11/29 10:13:48;;;;;;;;;5.00;3.25;;;;;4.34;72.10;100279.41;5098399;27;45311;-78
2021/11/29 10:16:30;;;;;;;;;9.00;3.00;;;;;4.37;71.85;100282.78;5098922;27;45188;-78
2021/11/29 10:18:55;;;;;;;;;8.75;5.50;;;;;4.35;71.79;100282.00;5098499;27;45162;-78
2021/11/29 10:21:21;;;;;;;;;4.00;3.00;;;;;4.42;72.11;100286.13;5098708;27;46636;-78
2021/11/29 10:23:49;;;;;;;;;9.00;6.75;;;;;4.49;71.63;100295.53;5098468;27;45238;-78
2021/11/29 10:26:23;;;;;;;;;6.50;5.00;;;;;4.55;71.40;100283.94;5099018;27;45254;-78
2021/11/29 10:28:57;;;;;;;;;6.50;6.25;;;;;4.58;71.45;100285.59;5098309;27;45287;-78
2021/11/29 10:31:38;;;;;;;;;8.00;7.25;;;;;4.60;71.29;100284.66;5098733;27;45495;-78
2021/11/29 10:34:08;;;;;;;;;8.75;5.75;;;;;4.64;71.35;100294.13;5096780;27;45239;-78
2021/11/29 10:36:51;;;;;;;;;3.50;3.50;;;;;4.64;70.74;100288.88;5098557;27;45184;-78
2021/11/29 10:39:32;;;;;;;;;3.00;3.00;;;;;4.66;71.33;100289.69;5098740;27;45261;-78
2021/11/29 10:42:02;;;;;;;;;6.25;3.25;;;;;4.83;70.89;100296.13;5097634;27;46516;-78
2021/11/29 10:44:31;;;;;;;;;6.00;3.00;;;;;5.06;71.29;100290.03;5098068;27;45261;-78
2021/11/29 10:46:59;;;;;;;;;3.75;2.75;;;;;5.46;70.63;100279.78;5098267;27;45219;-78
2021/11/29 10:49:30;;;;;;;;;4.00;1.25;;;;;5.98;70.59;100276.88;5098536;27;45274;-78
2021/11/29 10:52:07;;;;;;;;;4.00;2.00;;;;;6.60;69.64;100282.22;5098006;27;46629;-78
2021/11/29 10:54:34;;;;;;;;;7.50;4.75;;;;;7.04;67.92;100288.19;5097909;27;45352;-78
2021/11/29 10:57:02;;;;;;;;;7.25;6.00;;;;;7.45;67.73;100281.06;5113948;27;45211;-78
2021/11/29 10:59:31;;;;;;;;;8.00;5.25;;;;;7.78;66.15;100299.78;5098288;27;45136;-78
2021/11/29 11:01:59;;;;;;;;;3.00;3.00;;;;;7.83;64.89;100297.78;5097883;27;46038;-79
2021/11/29 11:04:33;;;;;;;;;5.00;3.75;;;;;7.72;65.40;100290.34;5113496;27;45654;-78
2021/11/29 11:07:04;;;;;;;;;2.50;2.50;;;;;7.62;65.01;100299.66;5098183;27;45247;-78
2021/11/29 11:09:48;;;;;;;;;4.00;1.25;;;;;7.52;65.66;100304.50;5098303;27;45219;-78
2021/11/29 11:12:14;;;;;;;;;3.75;2.00;;;;;7.48;64.97;100291.50;5097875;27;45234;-78
2021/11/29 11:14:47;;;;;;;;;4.00;4.00;;;;;7.64;65.43;100302.22;5097592;27;45229;-78
2021/11/29 11:17:13;;;;;;;;;2.00;1.25;;;;;7.99;64.88;100297.03;5097957;27;45337;-79
2021/11/29 11:19:48;;;;;;;;;2.75;2.50;;;;;8.48;64.23;100297.28;5098094;27;45296;-78
2021/11/29 11:22:16;;;;;;;;;2.00;2.00;;;;;8.89;63.71;100304.03;5097654;27;46121;-78
2021/11/29 11:24:45;;;;;;;;;3.00;2.00;;;;;9.30;62.76;100299.16;5095854;27;45605;-78
2021/11/29 11:27:12;;;;;;;;;1.75;1.25;;;;;9.61;62.39;100292.19;5113565;27;45144;-78
2021/11/29 11:29:47;;;;;;;;;2.00;2.00;;;;;9.93;61.59;100291.31;5097871;27;45112;-78
2021/11/29 11:32:27;;;;;;;;;4.75;2.25;;;;;10.18;61.04;100296.94;5097800;27;46113;-79
2021/11/29 11:34:57;;;;;;;;;4.75;2.00;;;;;10.36;60.39;100297.72;5097427;27;45675;-78